Hampton, VA

02:19 EST le 29 novembre 2014 (GMT -0500)
Langley Air Force Base | Change Station
CLOSE
Current Station
Aéroport
Location: Langley AFB,
Altitude: 10 ft
Stations météo à proximité

Alt. 10 ft 37.08 °N, 76.36 °W | Updated 21 minutes ago

Ciel dégagé
Ciel dégagé
28 ° F
Paraît 28 ° F
N
2
Vent Variable Vent de SO

Aujourd'hui
Haut(e) -- | Bas -- ° F
--% Risque de précip.
Hier
Haut(e) -- | Bas -- ° F
Precip. -- pouce
6:58 AM 4:49 PM
Lune montante, 49% visible
Pression 30.36 pouce
Visibilité 10.0 Miles terrestres
Nuages Peu 17000 ft
Point de rosée 26 ° F
Humidité 94%
Précipitations 0.00 pouce
Profondeur de la couche neigeuse Non disponible.
UV 0 sur 12
Pollen .20 sur 12
Qualité de l'air Non disponible.
Flu Activity Non disponible.
METAR KLFI 290658Z AUTO 23002KT 10SM FEW170 M02/M03 A3034 RMK AO2 SLP281 T10241033 $

More Conditions Fewer Conditions

Pression 30.36 pouce
Visibilité 10.0 Miles terrestres
Nuages Peu 17000 ft
Point de rosée 26 ° F
Humidité 94%
Précipitations 0.00 pouce
Profondeur de la couche neigeuse Non disponible.
UV 0 sur 12
Pollen .20 sur 12
Qualité de l'air Non disponible.
Flu Activity Non disponible.
METAR KLFI 290658Z AUTO 23002KT 10SM FEW170 M02/M03 A3034 RMK AO2 SLP281 T10241033 $

More Conditions Fewer Conditions

10-Day Weather Forecast

Almanac

Astronomie

Nov. 29, 2014 Lever Coucher
Temps réel
Crépuscule civil
Crépuscule nautique
Crépuscule astronomique
Lune
Durée de lumière visible
Longueur du jour
Tomorrow will be .
, % of the Moon is Illuminated

Extrêmes aujourd'hui

State Highs State Lows

Community

WunderPhotos

Upload Photos

1,774,432 Photos téléchargées !

WunderBlogs® & News

Nearby

Qualité de l'air

  Qualité de l'air Indice de la qualité de l'air Polluant
Not available.

Épaisseur de neige

Station Depth Altitude

Activité sismique

Ville Distance Mag. Time & Date
Minimum magnitude displayed is 2.5.

Températures des eaux côtières

Lieu Température

Stations météo à proximité